Airfield :
LOGIN :

Register | Disclaimer

   EN    FR    IT 

 










Legend :    VFR   Marginal VFR   IFR   Intensive IFR   Very Intensive IFR
Visi :
Ceiling :
>= 8 km
>= 3000ft
5 to 8 km
1000 to 3000 ft
1500m to 5 km
500 to 1000 ft
800 to 1500m
200 to 500 ft
< 800m
< 200 ft
Symbols :   Thunderstorms  Fog  Heavy snow  Heavy precipitations  Wind > 20 kt
SIGMETs :     Misc.  Thunderstorms  Icing  Turbulence  Mountain Waves  Volcanic Ashes







- Airport Elevation : 87 ft
- IATA code : FSC
- Download approach charts


LFKF - Figari

CURRENT METAR :
  • 232100Z AUTO VRB03KT 9999 SCT021 OVC028 15/13 Q1009 BECMG 04015KT

EXPIRED METARs :
  • 232030Z AUTO 26007KT 9999 FEW026 OVC032 15/13 Q1009 BECMG 04015KT
  • 232000Z AUTO 25008KT 9999 BKN025 OVC033 15/13 Q1009 BECMG 04015KT
  • 231930Z AUTO 25008KT 9999 OVC024 15/13 Q1008 BECMG 04015KT
  • 231900Z AUTO 26008KT 9999 BKN021 BKN030 OVC042 15/13 Q1007 BECMG 04015KT

TAF AMD TAF LFKF
Valid from the 23 at 15:00 until the 24 at 15:00 UTC


231534Z 2315/2415 22012KT 9999 BKN015
TEMPO 2315/2318 SHRA BKN005 SCT020CB BKN026
BECMG 2320/2323 04015KT SCT030
No reported NOTAMs for that airfield.
1 SIGMET reported for the Marseille FIR (LFMM) :
 
Severe turbulence
LFMM SIGMET 2 VALID 232100/232300 LFPW
LFMM MARSEILLE FIR/UIR SEV TURB FCST WI N4330 E00245 - N4545 E00300 - N4545 E00500 - N4500 E00500 - N4330 E00245 SFC/FL070 STNR INTSF=



MET'MAP, your aeronautical weather chart ! - Copyright ORBIFLY December 2007 - Disclaimer

ORBIFLY MET'MAP TEAM :

Programming & Development : Alexandra Zaïnal
Concept & Development : Baudouin d'Aumeries
Co-Development & Prog : Marc-Olivier Méhu
Technical & hardware support : Manuel Goepfert

Contact : metmap@orbifly.com




SOURCES & CREDITS :

   NOAA